sensor_id;sensor_type;location;lat;lon;timestamp;P1;durP1;ratioP1;P2;durP2;ratioP2
9106;SDS011;4589;48.690;8.952;2023-04-15T00:01:19;3.87;;;3.20;;
9106;SDS011;4589;48.690;8.952;2023-04-15T00:03:45;3.53;;;3.00;;
9106;SDS011;4589;48.690;8.952;2023-04-15T00:06:11;4.72;;;3.10;;
9106;SDS011;4589;48.690;8.952;2023-04-15T00:08:38;3.45;;;2.20;;
9106;SDS011;4589;48.690;8.952;2023-04-15T00:11:04;6.13;;;3.30;;
9106;SDS011;4589;48.690;8.952;2023-04-15T00:13:30;9.00;;;2.97;;
9106;SDS011;4589;48.690;8.952;2023-04-15T00:15:58;2.50;;;2.30;;
9106;SDS011;4589;48.690;8.952;2023-04-15T00:18:24;4.13;;;2.40;;
9106;SDS011;4589;48.690;8.952;2023-04-15T00:20:50;4.63;;;2.77;;
9106;SDS011;4589;48.690;8.952;2023-04-15T00:23:17;5.43;;;2.88;;
9106;SDS011;4589;48.690;8.952;2023-04-15T00:25:43;3.70;;;2.90;;
9106;SDS011;4589;48.690;8.952;2023-04-15T00:28:09;5.10;;;3.43;;
9106;SDS011;4589;48.690;8.952;2023-04-15T00:30:34;7.17;;;3.70;;
9106;SDS011;4589;48.690;8.952;2023-04-15T00:33:00;5.47;;;3.90;;
9106;SDS011;4589;48.690;8.952;2023-04-15T00:35:26;3.97;;;2.83;;
9106;SDS011;4589;48.690;8.952;2023-04-15T00:37:52;5.13;;;3.60;;
9106;SDS011;4589;48.690;8.952;2023-04-15T00:40:18;7.90;;;3.40;;
9106;SDS011;4589;48.690;8.952;2023-04-15T00:42:46;8.48;;;3.45;;
9106;SDS011;4589;48.690;8.952;2023-04-15T00:45:11;7.57;;;3.65;;
9106;SDS011;4589;48.690;8.952;2023-04-15T00:47:38;6.07;;;3.50;;
9106;SDS011;4589;48.690;8.952;2023-04-15T00:50:07;2.97;;;2.67;;
9106;SDS011;4589;48.690;8.952;2023-04-15T00:52:33;5.15;;;2.72;;
9106;SDS011;4589;48.690;8.952;2023-04-15T00:54:59;4.23;;;3.00;;
9106;SDS011;4589;48.690;8.952;2023-04-15T00:57:25;3.75;;;2.55;;
9106;SDS011;4589;48.690;8.952;2023-04-15T00:59:52;3.95;;;3.15;;
9106;SDS011;4589;48.690;8.952;2023-04-15T01:02:20;5.25;;;2.83;;
9106;SDS011;4589;48.690;8.952;2023-04-15T01:04:46;5.10;;;3.07;;
9106;SDS011;4589;48.690;8.952;2023-04-15T01:07:12;3.00;;;2.40;;
9106;SDS011;4589;48.690;8.952;2023-04-15T01:09:38;6.28;;;3.20;;
9106;SDS011;4589;48.690;8.952;2023-04-15T01:12:06;4.28;;;2.45;;
9106;SDS011;4589;48.690;8.952;2023-04-15T01:14:34;3.58;;;2.92;;
9106;SDS011;4589;48.690;8.952;2023-04-15T01:17:00;4.30;;;2.60;;
9106;SDS011;4589;48.690;8.952;2023-04-15T01:19:27;7.47;;;3.22;;
9106;SDS011;4589;48.690;8.952;2023-04-15T01:21:53;3.85;;;2.65;;
9106;SDS011;4589;48.690;8.952;2023-04-15T01:24:19;5.80;;;3.42;;
9106;SDS011;4589;48.690;8.952;2023-04-15T01:26:45;5.05;;;3.35;;
9106;SDS011;4589;48.690;8.952;2023-04-15T01:29:11;6.32;;;3.58;;
9106;SDS011;4589;48.690;8.952;2023-04-15T01:31:37;4.80;;;3.30;;
9106;SDS011;4589;48.690;8.952;2023-04-15T01:34:03;4.45;;;3.45;;
9106;SDS011;4589;48.690;8.952;2023-04-15T01:36:29;4.50;;;2.80;;
9106;SDS011;4589;48.690;8.952;2023-04-15T01:38:55;7.00;;;3.80;;
9106;SDS011;4589;48.690;8.952;2023-04-15T01:41:24;4.22;;;3.40;;
9106;SDS011;4589;48.690;8.952;2023-04-15T01:43:51;5.43;;;3.40;;
9106;SDS011;4589;48.690;8.952;2023-04-15T01:46:17;3.80;;;3.10;;
9106;SDS011;4589;48.690;8.952;2023-04-15T01:48:42;6.10;;;3.00;;
9106;SDS011;4589;48.690;8.952;2023-04-15T01:51:08;8.20;;;3.63;;
9106;SDS011;4589;48.690;8.952;2023-04-15T01:53:35;4.43;;;2.83;;
9106;SDS011;4589;48.690;8.952;2023-04-15T01:56:01;4.93;;;3.47;;
9106;SDS011;4589;48.690;8.952;2023-04-15T01:58:27;4.40;;;3.40;;
9106;SDS011;4589;48.690;8.952;2023-04-15T02:00:53;5.03;;;2.97;;
9106;SDS011;4589;48.690;8.952;2023-04-15T02:03:19;4.50;;;3.37;;
9106;SDS011;4589;48.690;8.952;2023-04-15T02:05:44;3.87;;;2.90;;
9106;SDS011;4589;48.690;8.952;2023-04-15T02:08:10;6.23;;;3.30;;
9106;SDS011;4589;48.690;8.952;2023-04-15T02:10:36;4.70;;;3.60;;
9106;SDS011;4589;48.690;8.952;2023-04-15T02:13:02;5.38;;;3.40;;
9106;SDS011;4589;48.690;8.952;2023-04-15T02:15:28;4.40;;;3.47;;
9106;SDS011;4589;48.690;8.952;2023-04-15T02:17:54;5.63;;;3.07;;
9106;SDS011;4589;48.690;8.952;2023-04-15T02:20:20;5.40;;;3.97;;
9106;SDS011;4589;48.690;8.952;2023-04-15T02:22:46;4.30;;;3.45;;
9106;SDS011;4589;48.690;8.952;2023-04-15T02:25:12;6.43;;;5.32;;
9106;SDS011;4589;48.690;8.952;2023-04-15T02:27:38;6.18;;;3.30;;
9106;SDS011;4589;48.690;8.952;2023-04-15T02:30:04;6.15;;;3.45;;
9106;SDS011;4589;48.690;8.952;2023-04-15T02:32:31;5.22;;;3.63;;
9106;SDS011;4589;48.690;8.952;2023-04-15T02:35:01;6.10;;;3.63;;
9106;SDS011;4589;48.690;8.952;2023-04-15T02:37:28;3.55;;;3.15;;
9106;SDS011;4589;48.690;8.952;2023-04-15T02:39:55;4.65;;;3.90;;
9106;SDS011;4589;48.690;8.952;2023-04-15T02:42:21;6.63;;;3.47;;
9106;SDS011;4589;48.690;8.952;2023-04-15T02:44:47;5.77;;;3.80;;
9106;SDS011;4589;48.690;8.952;2023-04-15T02:47:13;5.40;;;3.07;;
9106;SDS011;4589;48.690;8.952;2023-04-15T02:49:39;4.25;;;3.28;;
9106;SDS011;4589;48.690;8.952;2023-04-15T02:52:05;7.20;;;4.07;;
9106;SDS011;4589;48.690;8.952;2023-04-15T02:54:31;6.65;;;3.80;;
9106;SDS011;4589;48.690;8.952;2023-04-15T02:56:58;3.40;;;3.10;;
9106;SDS011;4589;48.690;8.952;2023-04-15T02:59:24;3.35;;;3.03;;
9106;SDS011;4589;48.690;8.952;2023-04-15T03:01:50;3.97;;;2.90;;
9106;SDS011;4589;48.690;8.952;2023-04-15T03:04:16;4.90;;;3.07;;
9106;SDS011;4589;48.690;8.952;2023-04-15T03:06:42;6.87;;;3.50;;
9106;SDS011;4589;48.690;8.952;2023-04-15T03:09:08;8.23;;;2.60;;
9106;SDS011;4589;48.690;8.952;2023-04-15T03:11:34;3.47;;;3.17;;
9106;SDS011;4589;48.690;8.952;2023-04-15T03:14:04;5.22;;;3.08;;
9106;SDS011;4589;48.690;8.952;2023-04-15T03:16:30;5.30;;;2.90;;
9106;SDS011;4589;48.690;8.952;2023-04-15T03:18:56;7.43;;;3.53;;
9106;SDS011;4589;48.690;8.952;2023-04-15T03:21:21;6.00;;;3.23;;
9106;SDS011;4589;48.690;8.952;2023-04-15T03:23:47;11.70;;;4.10;;
9106;SDS011;4589;48.690;8.952;2023-04-15T03:26:26;4.90;;;3.40;;
9106;SDS011;4589;48.690;8.952;2023-04-15T03:28:53;8.88;;;3.50;;
9106;SDS011;4589;48.690;8.952;2023-04-15T03:31:19;5.05;;;3.65;;
9106;SDS011;4589;48.690;8.952;2023-04-15T03:33:45;3.70;;;3.27;;
9106;SDS011;4589;48.690;8.952;2023-04-15T03:36:10;5.73;;;3.57;;
9106;SDS011;4589;48.690;8.952;2023-04-15T03:38:36;5.10;;;2.80;;
9106;SDS011;4589;48.690;8.952;2023-04-15T03:41:02;7.37;;;3.27;;
9106;SDS011;4589;48.690;8.952;2023-04-15T03:43:28;4.03;;;3.60;;
9106;SDS011;4589;48.690;8.952;2023-04-15T03:45:53;7.20;;;3.50;;
9106;SDS011;4589;48.690;8.952;2023-04-15T03:48:19;3.43;;;3.13;;
9106;SDS011;4589;48.690;8.952;2023-04-15T03:50:45;4.93;;;3.53;;
9106;SDS011;4589;48.690;8.952;2023-04-15T03:53:10;5.30;;;3.37;;
9106;SDS011;4589;48.690;8.952;2023-04-15T03:55:36;10.27;;;3.40;;
9106;SDS011;4589;48.690;8.952;2023-04-15T03:58:01;10.13;;;5.40;;
9106;SDS011;4589;48.690;8.952;2023-04-15T04:00:27;8.00;;;5.63;;
9106;SDS011;4589;48.690;8.952;2023-04-15T04:02:53;12.83;;;6.93;;
9106;SDS011;4589;48.690;8.952;2023-04-15T04:05:19;6.00;;;4.03;;
9106;SDS011;4589;48.690;8.952;2023-04-15T04:07:45;6.77;;;3.53;;
9106;SDS011;4589;48.690;8.952;2023-04-15T04:10:11;5.05;;;3.03;;
9106;SDS011;4589;48.690;8.952;2023-04-15T04:12:36;10.60;;;3.07;;
9106;SDS011;4589;48.690;8.952;2023-04-15T04:15:03;5.07;;;3.15;;
9106;SDS011;4589;48.690;8.952;2023-04-15T04:17:29;7.93;;;3.13;;
9106;SDS011;4589;48.690;8.952;2023-04-15T04:19:55;5.60;;;3.07;;
9106;SDS011;4589;48.690;8.952;2023-04-15T04:22:21;5.53;;;3.00;;
9106;SDS011;4589;48.690;8.952;2023-04-15T04:24:48;4.90;;;3.95;;
9106;SDS011;4589;48.690;8.952;2023-04-15T04:27:13;5.30;;;3.33;;
9106;SDS011;4589;48.690;8.952;2023-04-15T04:29:39;14.43;;;3.60;;
9106;SDS011;4589;48.690;8.952;2023-04-15T04:32:05;4.40;;;3.40;;
9106;SDS011;4589;48.690;8.952;2023-04-15T04:34:30;5.27;;;3.97;;
9106;SDS011;4589;48.690;8.952;2023-04-15T04:36:56;5.13;;;3.33;;
9106;SDS011;4589;48.690;8.952;2023-04-15T04:39:23;6.07;;;3.85;;
9106;SDS011;4589;48.690;8.952;2023-04-15T04:41:48;5.00;;;4.45;;
9106;SDS011;4589;48.690;8.952;2023-04-15T04:44:16;7.35;;;4.68;;
9106;SDS011;4589;48.690;8.952;2023-04-15T04:46:42;5.83;;;5.20;;
9106;SDS011;4589;48.690;8.952;2023-04-15T04:49:07;4.40;;;4.00;;
9106;SDS011;4589;48.690;8.952;2023-04-15T04:51:33;4.40;;;4.00;;
9106;SDS011;4589;48.690;8.952;2023-04-15T04:53:59;5.55;;;3.83;;
9106;SDS011;4589;48.690;8.952;2023-04-15T04:56:25;4.67;;;3.70;;
9106;SDS011;4589;48.690;8.952;2023-04-15T04:58:51;4.73;;;3.50;;
9106;SDS011;4589;48.690;8.952;2023-04-15T05:01:16;4.37;;;3.43;;
9106;SDS011;4589;48.690;8.952;2023-04-15T05:03:42;5.93;;;4.10;;
9106;SDS011;4589;48.690;8.952;2023-04-15T05:06:08;10.00;;;3.95;;
9106;SDS011;4589;48.690;8.952;2023-04-15T05:08:34;6.03;;;3.90;;
9106;SDS011;4589;48.690;8.952;2023-04-15T05:11:01;6.53;;;3.80;;
9106;SDS011;4589;48.690;8.952;2023-04-15T05:13:27;6.20;;;3.70;;
9106;SDS011;4589;48.690;8.952;2023-04-15T05:15:54;6.68;;;3.30;;
9106;SDS011;4589;48.690;8.952;2023-04-15T05:18:19;5.07;;;3.60;;
9106;SDS011;4589;48.690;8.952;2023-04-15T05:20:45;4.50;;;3.60;;
9106;SDS011;4589;48.690;8.952;2023-04-15T05:23:11;7.80;;;3.83;;
9106;SDS011;4589;48.690;8.952;2023-04-15T05:25:37;8.40;;;4.03;;
9106;SDS011;4589;48.690;8.952;2023-04-15T05:28:03;4.70;;;3.90;;
9106;SDS011;4589;48.690;8.952;2023-04-15T05:30:28;4.67;;;3.50;;
9106;SDS011;4589;48.690;8.952;2023-04-15T05:32:54;7.30;;;4.13;;
9106;SDS011;4589;48.690;8.952;2023-04-15T05:35:20;5.47;;;4.27;;
9106;SDS011;4589;48.690;8.952;2023-04-15T05:37:46;6.57;;;4.88;;
9106;SDS011;4589;48.690;8.952;2023-04-15T05:40:12;9.30;;;7.60;;
9106;SDS011;4589;48.690;8.952;2023-04-15T05:42:38;7.68;;;5.10;;
9106;SDS011;4589;48.690;8.952;2023-04-15T05:45:04;6.88;;;4.38;;
9106;SDS011;4589;48.690;8.952;2023-04-15T05:47:33;9.32;;;4.15;;
9106;SDS011;4589;48.690;8.952;2023-04-15T05:49:59;7.38;;;4.28;;
9106;SDS011;4589;48.690;8.952;2023-04-15T05:52:25;4.90;;;4.20;;
9106;SDS011;4589;48.690;8.952;2023-04-15T05:54:51;8.77;;;4.20;;
9106;SDS011;4589;48.690;8.952;2023-04-15T05:57:17;4.70;;;3.33;;
9106;SDS011;4589;48.690;8.952;2023-04-15T05:59:43;5.90;;;4.00;;
9106;SDS011;4589;48.690;8.952;2023-04-15T06:02:09;5.90;;;3.17;;
9106;SDS011;4589;48.690;8.952;2023-04-15T06:04:35;10.57;;;4.30;;
9106;SDS011;4589;48.690;8.952;2023-04-15T06:07:01;5.28;;;3.45;;
9106;SDS011;4589;48.690;8.952;2023-04-15T06:09:27;6.30;;;3.90;;
9106;SDS011;4589;48.690;8.952;2023-04-15T06:11:53;5.40;;;4.03;;
9106;SDS011;4589;48.690;8.952;2023-04-15T06:14:20;8.73;;;4.00;;
9106;SDS011;4589;48.690;8.952;2023-04-15T06:16:46;5.40;;;4.03;;
9106;SDS011;4589;48.690;8.952;2023-04-15T06:19:11;6.83;;;4.47;;
9106;SDS011;4589;48.690;8.952;2023-04-15T06:21:38;6.03;;;4.10;;
9106;SDS011;4589;48.690;8.952;2023-04-15T06:24:04;6.83;;;4.20;;
9106;SDS011;4589;48.690;8.952;2023-04-15T06:26:30;12.93;;;5.10;;
9106;SDS011;4589;48.690;8.952;2023-04-15T06:28:56;5.77;;;3.80;;
9106;SDS011;4589;48.690;8.952;2023-04-15T06:31:22;7.60;;;3.80;;
9106;SDS011;4589;48.690;8.952;2023-04-15T06:33:48;8.77;;;4.00;;
9106;SDS011;4589;48.690;8.952;2023-04-15T06:36:14;4.90;;;3.20;;
9106;SDS011;4589;48.690;8.952;2023-04-15T06:38:40;6.20;;;3.83;;
9106;SDS011;4589;48.690;8.952;2023-04-15T06:41:05;5.87;;;4.43;;
9106;SDS011;4589;48.690;8.952;2023-04-15T06:43:31;4.50;;;3.53;;
9106;SDS011;4589;48.690;8.952;2023-04-15T06:45:57;5.37;;;3.37;;
9106;SDS011;4589;48.690;8.952;2023-04-15T06:48:23;6.57;;;3.57;;
9106;SDS011;4589;48.690;8.952;2023-04-15T06:50:49;3.83;;;3.50;;
9106;SDS011;4589;48.690;8.952;2023-04-15T06:53:15;5.87;;;3.90;;
9106;SDS011;4589;48.690;8.952;2023-04-15T06:55:41;12.20;;;3.87;;
9106;SDS011;4589;48.690;8.952;2023-04-15T06:58:07;11.53;;;4.30;;
9106;SDS011;4589;48.690;8.952;2023-04-15T07:00:32;7.33;;;4.37;;
9106;SDS011;4589;48.690;8.952;2023-04-15T07:02:58;8.10;;;3.90;;
9106;SDS011;4589;48.690;8.952;2023-04-15T07:05:27;5.53;;;4.10;;
9106;SDS011;4589;48.690;8.952;2023-04-15T07:07:53;7.30;;;3.83;;
9106;SDS011;4589;48.690;8.952;2023-04-15T07:10:19;7.03;;;3.50;;
9106;SDS011;4589;48.690;8.952;2023-04-15T07:12:45;3.93;;;3.57;;
9106;SDS011;4589;48.690;8.952;2023-04-15T07:15:11;4.50;;;3.63;;
9106;SDS011;4589;48.690;8.952;2023-04-15T07:17:36;5.70;;;3.43;;
9106;SDS011;4589;48.690;8.952;2023-04-15T07:20:02;6.37;;;3.30;;
9106;SDS011;4589;48.690;8.952;2023-04-15T07:22:28;3.40;;;3.07;;
9106;SDS011;4589;48.690;8.952;2023-04-15T07:24:54;4.70;;;3.93;;
9106;SDS011;4589;48.690;8.952;2023-04-15T07:27:20;5.10;;;3.60;;
9106;SDS011;4589;48.690;8.952;2023-04-15T07:29:46;4.30;;;3.90;;
9106;SDS011;4589;48.690;8.952;2023-04-15T07:32:12;5.10;;;3.43;;
9106;SDS011;4589;48.690;8.952;2023-04-15T07:34:38;5.87;;;3.30;;
9106;SDS011;4589;48.690;8.952;2023-04-15T07:37:04;4.20;;;3.20;;
9106;SDS011;4589;48.690;8.952;2023-04-15T07:39:30;5.53;;;3.10;;
9106;SDS011;4589;48.690;8.952;2023-04-15T07:41:55;5.97;;;2.97;;
9106;SDS011;4589;48.690;8.952;2023-04-15T07:44:23;5.93;;;3.30;;
9106;SDS011;4589;48.690;8.952;2023-04-15T07:46:49;3.20;;;2.90;;
9106;SDS011;4589;48.690;8.952;2023-04-15T07:49:15;7.67;;;3.30;;
9106;SDS011;4589;48.690;8.952;2023-04-15T07:51:41;4.00;;;3.23;;
9106;SDS011;4589;48.690;8.952;2023-04-15T07:54:06;5.43;;;2.97;;
9106;SDS011;4589;48.690;8.952;2023-04-15T07:56:32;8.03;;;3.73;;
9106;SDS011;4589;48.690;8.952;2023-04-15T07:58:58;4.07;;;3.13;;
9106;SDS011;4589;48.690;8.952;2023-04-15T08:01:26;4.77;;;2.60;;
9106;SDS011;4589;48.690;8.952;2023-04-15T08:03:51;8.27;;;3.07;;
9106;SDS011;4589;48.690;8.952;2023-04-15T08:06:17;4.33;;;2.87;;
9106;SDS011;4589;48.690;8.952;2023-04-15T08:08:43;6.40;;;2.70;;
9106;SDS011;4589;48.690;8.952;2023-04-15T08:11:09;3.40;;;2.80;;
9106;SDS011;4589;48.690;8.952;2023-04-15T08:13:35;3.40;;;2.67;;
9106;SDS011;4589;48.690;8.952;2023-04-15T08:16:17;3.80;;;2.90;;
9106;SDS011;4589;48.690;8.952;2023-04-15T08:18:50;5.73;;;3.40;;
9106;SDS011;4589;48.690;8.952;2023-04-15T08:21:17;4.37;;;3.20;;
9106;SDS011;4589;48.690;8.952;2023-04-15T08:23:44;6.53;;;2.90;;
9106;SDS011;4589;48.690;8.952;2023-04-15T08:26:11;4.70;;;2.97;;
9106;SDS011;4589;48.690;8.952;2023-04-15T08:28:37;3.83;;;2.97;;
9106;SDS011;4589;48.690;8.952;2023-04-15T08:31:04;4.27;;;2.20;;
9106;SDS011;4589;48.690;8.952;2023-04-15T08:33:30;3.20;;;2.33;;
9106;SDS011;4589;48.690;8.952;2023-04-15T08:35:55;4.00;;;2.70;;
9106;SDS011;4589;48.690;8.952;2023-04-15T08:38:21;5.50;;;3.13;;
9106;SDS011;4589;48.690;8.952;2023-04-15T08:40:47;4.07;;;2.43;;
9106;SDS011;4589;48.690;8.952;2023-04-15T08:43:14;2.40;;;2.10;;
9106;SDS011;4589;48.690;8.952;2023-04-15T08:45:45;2.87;;;2.67;;
9106;SDS011;4589;48.690;8.952;2023-04-15T08:48:13;2.80;;;2.13;;
9106;SDS011;4589;48.690;8.952;2023-04-15T08:50:42;3.17;;;2.37;;
9106;SDS011;4589;48.690;8.952;2023-04-15T08:53:09;3.30;;;2.03;;
9106;SDS011;4589;48.690;8.952;2023-04-15T08:55:35;3.77;;;2.50;;
9106;SDS011;4589;48.690;8.952;2023-04-15T08:58:08;5.37;;;2.67;;
9106;SDS011;4589;48.690;8.952;2023-04-15T09:00:35;5.50;;;2.20;;
9106;SDS011;4589;48.690;8.952;2023-04-15T09:03:02;2.07;;;1.87;;
9106;SDS011;4589;48.690;8.952;2023-04-15T09:05:37;2.97;;;2.10;;
9106;SDS011;4589;48.690;8.952;2023-04-15T09:08:03;3.00;;;2.33;;
9106;SDS011;4589;48.690;8.952;2023-04-15T09:10:29;3.43;;;2.40;;
9106;SDS011;4589;48.690;8.952;2023-04-15T09:12:55;2.30;;;2.10;;
9106;SDS011;4589;48.690;8.952;2023-04-15T09:15:23;3.37;;;2.30;;
9106;SDS011;4589;48.690;8.952;2023-04-15T09:17:50;4.53;;;2.10;;
9106;SDS011;4589;48.690;8.952;2023-04-15T09:20:16;2.73;;;2.40;;
9106;SDS011;4589;48.690;8.952;2023-04-15T09:22:44;3.30;;;2.50;;
9106;SDS011;4589;48.690;8.952;2023-04-15T09:27:49;2.50;;;2.17;;
9106;SDS011;4589;48.690;8.952;2023-04-15T09:30:19;3.93;;;2.47;;
9106;SDS011;4589;48.690;8.952;2023-04-15T09:32:57;3.17;;;2.13;;
9106;SDS011;4589;48.690;8.952;2023-04-15T09:35:26;4.90;;;2.40;;
9106;SDS011;4589;48.690;8.952;2023-04-15T09:37:52;5.07;;;2.40;;
9106;SDS011;4589;48.690;8.952;2023-04-15T09:40:36;3.33;;;1.97;;
9106;SDS011;4589;48.690;8.952;2023-04-15T09:43:04;2.40;;;2.10;;
9106;SDS011;4589;48.690;8.952;2023-04-15T09:45:31;2.10;;;1.93;;
9106;SDS011;4589;48.690;8.952;2023-04-15T09:47:58;3.30;;;2.63;;
9106;SDS011;4589;48.690;8.952;2023-04-15T09:50:39;3.90;;;2.07;;
9106;SDS011;4589;48.690;8.952;2023-04-15T09:53:08;3.00;;;2.30;;
9106;SDS011;4589;48.690;8.952;2023-04-15T09:55:42;4.30;;;1.80;;
9106;SDS011;4589;48.690;8.952;2023-04-15T10:00:52;3.87;;;2.10;;
9106;SDS011;4589;48.690;8.952;2023-04-15T10:03:21;6.57;;;2.43;;
9106;SDS011;4589;48.690;8.952;2023-04-15T10:05:52;3.80;;;2.07;;
9106;SDS011;4589;48.690;8.952;2023-04-15T10:08:23;3.43;;;2.27;;
9106;SDS011;4589;48.690;8.952;2023-04-15T10:10:53;2.40;;;2.20;;
9106;SDS011;4589;48.690;8.952;2023-04-15T10:13:20;3.40;;;2.53;;
9106;SDS011;4589;48.690;8.952;2023-04-15T10:18:24;3.07;;;2.13;;
9106;SDS011;4589;48.690;8.952;2023-04-15T10:20:52;6.30;;;2.47;;
9106;SDS011;4589;48.690;8.952;2023-04-15T10:23:18;3.13;;;2.30;;
9106;SDS011;4589;48.690;8.952;2023-04-15T10:25:45;7.47;;;2.63;;
9106;SDS011;4589;48.690;8.952;2023-04-15T10:28:12;2.80;;;2.23;;
9106;SDS011;4589;48.690;8.952;2023-04-15T10:30:40;2.67;;;1.90;;
9106;SDS011;4589;48.690;8.952;2023-04-15T10:33:07;5.03;;;2.30;;
9106;SDS011;4589;48.690;8.952;2023-04-15T10:35:34;4.07;;;2.23;;
9106;SDS011;4589;48.690;8.952;2023-04-15T10:38:01;5.57;;;2.10;;
9106;SDS011;4589;48.690;8.952;2023-04-15T10:40:28;2.00;;;1.80;;
9106;SDS011;4589;48.690;8.952;2023-04-15T10:42:58;4.93;;;2.30;;
9106;SDS011;4589;48.690;8.952;2023-04-15T10:45:26;3.20;;;2.10;;
9106;SDS011;4589;48.690;8.952;2023-04-15T10:47:56;3.50;;;1.90;;
9106;SDS011;4589;48.690;8.952;2023-04-15T10:50:25;4.50;;;2.10;;
9106;SDS011;4589;48.690;8.952;2023-04-15T10:52:52;5.63;;;2.03;;
9106;SDS011;4589;48.690;8.952;2023-04-15T10:55:19;1.97;;;1.70;;
9106;SDS011;4589;48.690;8.952;2023-04-15T10:57:50;1.90;;;1.50;;
9106;SDS011;4589;48.690;8.952;2023-04-15T11:00:20;2.20;;;2.00;;
9106;SDS011;4589;48.690;8.952;2023-04-15T11:02:56;4.90;;;2.30;;
9106;SDS011;4589;48.690;8.952;2023-04-15T11:08:06;3.60;;;2.33;;
9106;SDS011;4589;48.690;8.952;2023-04-15T11:12:59;3.03;;;2.30;;
9106;SDS011;4589;48.690;8.952;2023-04-15T11:20:35;3.43;;;2.17;;
9106;SDS011;4589;48.690;8.952;2023-04-15T11:23:01;9.00;;;2.50;;
9106;SDS011;4589;48.690;8.952;2023-04-15T11:25:28;4.33;;;2.23;;
9106;SDS011;4589;48.690;8.952;2023-04-15T11:27:55;4.93;;;2.23;;
9106;SDS011;4589;48.690;8.952;2023-04-15T11:30:22;2.43;;;2.23;;
9106;SDS011;4589;48.690;8.952;2023-04-15T11:32:51;4.90;;;2.30;;
9106;SDS011;4589;48.690;8.952;2023-04-15T11:35:19;3.03;;;2.73;;
9106;SDS011;4589;48.690;8.952;2023-04-15T11:37:45;6.00;;;2.83;;
9106;SDS011;4589;48.690;8.952;2023-04-15T11:40:12;8.53;;;2.63;;
9106;SDS011;4589;48.690;8.952;2023-04-15T11:42:39;4.47;;;2.60;;
9106;SDS011;4589;48.690;8.952;2023-04-15T11:45:10;2.50;;;2.30;;
9106;SDS011;4589;48.690;8.952;2023-04-15T11:47:39;3.23;;;2.50;;
9106;SDS011;4589;48.690;8.952;2023-04-15T11:50:39;5.10;;;2.80;;
9106;SDS011;4589;48.690;8.952;2023-04-15T11:52:59;3.80;;;2.77;;
9106;SDS011;4589;48.690;8.952;2023-04-15T11:55:30;5.63;;;2.90;;
9106;SDS011;4589;48.690;8.952;2023-04-15T12:00:32;10.10;;;3.30;;
9106;SDS011;4589;48.690;8.952;2023-04-15T12:03:16;4.20;;;3.40;;
9106;SDS011;4589;48.690;8.952;2023-04-15T12:16:48;4.00;;;2.43;;
9106;SDS011;4589;48.690;8.952;2023-04-15T12:19:21;4.73;;;2.90;;
9106;SDS011;4589;48.690;8.952;2023-04-15T12:21:48;6.53;;;3.10;;
9106;SDS011;4589;48.690;8.952;2023-04-15T12:24:14;4.90;;;3.40;;
9106;SDS011;4589;48.690;8.952;2023-04-15T12:26:44;4.70;;;3.07;;
9106;SDS011;4589;48.690;8.952;2023-04-15T12:29:17;9.60;;;3.40;;
9106;SDS011;4589;48.690;8.952;2023-04-15T12:31:48;3.60;;;2.57;;
9106;SDS011;4589;48.690;8.952;2023-04-15T12:34:15;7.13;;;4.27;;
9106;SDS011;4589;48.690;8.952;2023-04-15T12:36:41;6.10;;;3.77;;
9106;SDS011;4589;48.690;8.952;2023-04-15T12:39:07;4.87;;;3.70;;
9106;SDS011;4589;48.690;8.952;2023-04-15T12:41:33;4.67;;;3.83;;
9106;SDS011;4589;48.690;8.952;2023-04-15T12:43:59;4.70;;;3.53;;
9106;SDS011;4589;48.690;8.952;2023-04-15T12:46:25;7.13;;;4.47;;
9106;SDS011;4589;48.690;8.952;2023-04-15T12:48:51;5.07;;;3.80;;
9106;SDS011;4589;48.690;8.952;2023-04-15T12:51:17;5.67;;;4.03;;
9106;SDS011;4589;48.690;8.952;2023-04-15T12:53:43;6.23;;;3.83;;
9106;SDS011;4589;48.690;8.952;2023-04-15T12:56:09;7.87;;;4.20;;
9106;SDS011;4589;48.690;8.952;2023-04-15T12:58:35;7.73;;;4.37;;
9106;SDS011;4589;48.690;8.952;2023-04-15T13:01:01;6.20;;;4.23;;
9106;SDS011;4589;48.690;8.952;2023-04-15T13:03:27;9.10;;;4.27;;
9106;SDS011;4589;48.690;8.952;2023-04-15T13:05:52;5.53;;;4.00;;
9106;SDS011;4589;48.690;8.952;2023-04-15T13:08:18;7.13;;;4.20;;
9106;SDS011;4589;48.690;8.952;2023-04-15T13:10:44;4.27;;;3.87;;
9106;SDS011;4589;48.690;8.952;2023-04-15T13:13:10;4.07;;;3.40;;
9106;SDS011;4589;48.690;8.952;2023-04-15T13:15:36;6.70;;;3.20;;
9106;SDS011;4589;48.690;8.952;2023-04-15T13:18:03;4.20;;;3.60;;
9106;SDS011;4589;48.690;8.952;2023-04-15T13:20:30;6.90;;;4.07;;
9106;SDS011;4589;48.690;8.952;2023-04-15T13:22:56;4.43;;;4.03;;
9106;SDS011;4589;48.690;8.952;2023-04-15T13:25:21;4.93;;;3.70;;
9106;SDS011;4589;48.690;8.952;2023-04-15T13:27:47;9.40;;;3.73;;
9106;SDS011;4589;48.690;8.952;2023-04-15T13:30:13;8.37;;;4.20;;
9106;SDS011;4589;48.690;8.952;2023-04-15T13:32:39;4.73;;;3.43;;
9106;SDS011;4589;48.690;8.952;2023-04-15T13:35:04;3.17;;;2.87;;
9106;SDS011;4589;48.690;8.952;2023-04-15T13:37:30;5.97;;;3.30;;
9106;SDS011;4589;48.690;8.952;2023-04-15T13:39:56;5.27;;;4.33;;
9106;SDS011;4589;48.690;8.952;2023-04-15T13:42:22;4.80;;;4.30;;
9106;SDS011;4589;48.690;8.952;2023-04-15T13:44:48;9.63;;;4.50;;
9106;SDS011;4589;48.690;8.952;2023-04-15T13:47:18;8.20;;;4.80;;
9106;SDS011;4589;48.690;8.952;2023-04-15T13:49:44;4.73;;;4.20;;
9106;SDS011;4589;48.690;8.952;2023-04-15T13:52:10;12.25;;;4.90;;
9106;SDS011;4589;48.690;8.952;2023-04-15T13:54:36;4.83;;;3.73;;
9106;SDS011;4589;48.690;8.952;2023-04-15T13:57:02;6.77;;;4.03;;
9106;SDS011;4589;48.690;8.952;2023-04-15T13:59:27;5.40;;;4.50;;
9106;SDS011;4589;48.690;8.952;2023-04-15T14:01:53;7.60;;;4.30;;
9106;SDS011;4589;48.690;8.952;2023-04-15T14:04:19;4.07;;;3.60;;
9106;SDS011;4589;48.690;8.952;2023-04-15T14:06:45;4.20;;;3.80;;
9106;SDS011;4589;48.690;8.952;2023-04-15T14:09:11;3.60;;;3.30;;
9106;SDS011;4589;48.690;8.952;2023-04-15T14:11:37;4.90;;;3.00;;
9106;SDS011;4589;48.690;8.952;2023-04-15T14:14:03;4.23;;;3.10;;
9106;SDS011;4589;48.690;8.952;2023-04-15T14:16:31;3.70;;;2.80;;
9106;SDS011;4589;48.690;8.952;2023-04-15T14:18:57;2.90;;;2.60;;
9106;SDS011;4589;48.690;8.952;2023-04-15T14:21:23;2.30;;;2.10;;
9106;SDS011;4589;48.690;8.952;2023-04-15T14:23:48;3.73;;;2.20;;
9106;SDS011;4589;48.690;8.952;2023-04-15T14:26:15;5.77;;;2.30;;
9106;SDS011;4589;48.690;8.952;2023-04-15T14:28:40;4.60;;;2.60;;
9106;SDS011;4589;48.690;8.952;2023-04-15T14:31:08;2.87;;;1.90;;
9106;SDS011;4589;48.690;8.952;2023-04-15T14:33:34;2.03;;;1.83;;
9106;SDS011;4589;48.690;8.952;2023-04-15T14:36:00;3.33;;;2.80;;
9106;SDS011;4589;48.690;8.952;2023-04-15T14:38:26;2.50;;;2.30;;
9106;SDS011;4589;48.690;8.952;2023-04-15T14:40:52;3.03;;;2.50;;
9106;SDS011;4589;48.690;8.952;2023-04-15T14:43:17;4.77;;;3.00;;
9106;SDS011;4589;48.690;8.952;2023-04-15T14:45:43;3.73;;;3.10;;
9106;SDS011;4589;48.690;8.952;2023-04-15T14:48:09;3.37;;;2.90;;
9106;SDS011;4589;48.690;8.952;2023-04-15T14:50:36;5.03;;;2.67;;
9106;SDS011;4589;48.690;8.952;2023-04-15T14:53:02;2.70;;;2.37;;
9106;SDS011;4589;48.690;8.952;2023-04-15T14:55:27;5.30;;;2.63;;
9106;SDS011;4589;48.690;8.952;2023-04-15T14:57:53;3.70;;;2.73;;
9106;SDS011;4589;48.690;8.952;2023-04-15T15:00:19;3.33;;;2.40;;
9106;SDS011;4589;48.690;8.952;2023-04-15T15:02:45;2.67;;;2.43;;
9106;SDS011;4589;48.690;8.952;2023-04-15T15:05:12;4.93;;;2.80;;
9106;SDS011;4589;48.690;8.952;2023-04-15T15:07:37;3.67;;;3.23;;
9106;SDS011;4589;48.690;8.952;2023-04-15T15:10:04;4.10;;;2.90;;
9106;SDS011;4589;48.690;8.952;2023-04-15T15:12:31;4.27;;;2.60;;
9106;SDS011;4589;48.690;8.952;2023-04-15T15:14:57;3.80;;;3.03;;
9106;SDS011;4589;48.690;8.952;2023-04-15T15:17:23;3.73;;;3.00;;
9106;SDS011;4589;48.690;8.952;2023-04-15T15:19:49;2.70;;;2.50;;
9106;SDS011;4589;48.690;8.952;2023-04-15T15:22:15;6.50;;;3.33;;
9106;SDS011;4589;48.690;8.952;2023-04-15T15:24:41;3.60;;;2.83;;
9106;SDS011;4589;48.690;8.952;2023-04-15T15:27:07;4.30;;;2.97;;
9106;SDS011;4589;48.690;8.952;2023-04-15T15:29:33;8.97;;;3.23;;
9106;SDS011;4589;48.690;8.952;2023-04-15T15:31:59;4.10;;;3.00;;
9106;SDS011;4589;48.690;8.952;2023-04-15T15:34:25;3.80;;;3.20;;
9106;SDS011;4589;48.690;8.952;2023-04-15T15:36:51;4.57;;;3.50;;
9106;SDS011;4589;48.690;8.952;2023-04-15T15:39:16;5.50;;;3.77;;
9106;SDS011;4589;48.690;8.952;2023-04-15T15:41:42;3.67;;;3.37;;
9106;SDS011;4589;48.690;8.952;2023-04-15T15:44:08;3.20;;;3.00;;